Time;durP1;ratioP1;P1;durP2;ratioP2;P2;SDS_P1;SDS_P2;PMS_P1;PMS_P2;Temp;Humidity;BMP_temperature;BMP_pressure;BME280_temperature;BME280_humidity;BME280_pressure;Samples;Min_cycle;Max_cycle;Signal;HPM_P1;HPM_P2
2021/12/03 00:02:21;;;;;;;0.90;0.90;;;-7.70;99.90;;;;;;5015505;28;20235;-68
2021/12/03 00:04:47;;;;;;;0.90;0.90;;;-7.60;99.90;;;;;;5033893;28;20210;-67
2021/12/03 00:07:13;;;;;;;0.90;0.90;;;-7.60;99.90;;;;;;5015908;28;20216;-67
2021/12/03 00:09:39;;;;;;;1.00;1.00;;;-7.70;99.90;;;;;;5033413;28;20312;-67
2021/12/03 00:12:07;;;;;;;0.90;0.90;;;-7.70;99.90;;;;;;5013639;28;20725;-67
2021/12/03 00:14:34;;;;;;;0.80;0.80;;;-7.70;99.90;;;;;;5014961;28;20619;-67
2021/12/03 00:16:59;;;;;;;1.00;1.00;;;-7.70;99.90;;;;;;5013778;28;20716;-67
2021/12/03 00:19:25;;;;;;;3.57;1.80;;;-7.70;99.90;;;;;;5013546;28;20227;-67
2021/12/03 00:21:51;;;;;;;0.90;0.90;;;-7.70;99.90;;;;;;5011696;28;20194;-67
2021/12/03 00:24:17;;;;;;;0.90;0.90;;;-7.70;99.90;;;;;;5013648;28;20385;-65
2021/12/03 00:26:42;;;;;;;1.00;1.00;;;-7.70;99.90;;;;;;5014735;28;20198;-67
2021/12/03 00:29:08;;;;;;;1.00;1.00;;;-7.70;99.90;;;;;;5013594;28;20682;-67
2021/12/03 00:31:34;;;;;;;0.90;0.90;;;-7.60;99.90;;;;;;5014673;28;20610;-66
2021/12/03 00:34:00;;;;;;;1.00;1.00;;;-7.60;99.90;;;;;;5013553;28;20282;-67
2021/12/03 00:36:28;;;;;;;0.90;0.90;;;-7.60;99.90;;;;;;5013326;28;20202;-68
2021/12/03 00:38:58;;;;;;;0.90;0.90;;;-7.60;99.90;;;;;;5012393;28;20191;-67
2021/12/03 00:41:24;;;;;;;0.90;0.90;;;-7.70;99.90;;;;;;5012888;28;20200;-65
2021/12/03 00:43:52;;;;;;;1.00;1.00;;;-7.70;99.90;;;;;;5013508;28;20215;-71
2021/12/03 00:46:20;;;;;;;0.90;0.90;;;-7.60;99.90;;;;;;5012603;28;20199;-66
2021/12/03 00:48:51;;;;;;;0.80;0.80;;;-7.60;99.90;;;;;;5014416;28;20203;-66
2021/12/03 00:51:19;;;;;;;0.90;0.90;;;-7.60;99.90;;;;;;5013444;28;20211;-66
2021/12/03 00:53:45;;;;;;;0.93;0.93;;;-7.60;99.90;;;;;;5013408;28;20728;-67
2021/12/03 00:56:14;;;;;;;1.00;1.00;;;-7.60;99.90;;;;;;5012973;28;20234;-67
2021/12/03 00:58:40;;;;;;;1.00;1.00;;;-7.60;99.90;;;;;;5012959;28;20214;-67
2021/12/03 01:01:07;;;;;;;0.80;0.80;;;-7.60;99.90;;;;;;5012780;28;20266;-67
2021/12/03 01:03:36;;;;;;;0.80;0.80;;;-7.60;99.90;;;;;;5014027;28;20213;-67
2021/12/03 01:06:03;;;;;;;0.93;0.93;;;-7.60;99.90;;;;;;5012974;28;20207;-66
2021/12/03 01:08:28;;;;;;;0.80;0.80;;;-7.60;99.90;;;;;;5013982;28;20215;-66
2021/12/03 01:10:54;;;;;;;1.00;1.00;;;-7.70;99.90;;;;;;5022458;28;20292;-67
2021/12/03 01:13:21;;;;;;;0.90;0.90;;;-7.60;99.90;;;;;;5033480;28;20269;-67
2021/12/03 01:15:46;;;;;;;0.80;0.80;;;-7.60;99.90;;;;;;5032457;28;20677;-67
2021/12/03 01:18:13;;;;;;;0.90;0.90;;;-7.60;99.90;;;;;;5031980;28;20226;-67
2021/12/03 01:20:42;;;;;;;0.90;0.90;;;-7.70;99.90;;;;;;5031967;28;20213;-67
2021/12/03 01:23:09;;;;;;;0.90;0.90;;;-7.70;99.90;;;;;;5032227;28;20209;-67
2021/12/03 01:25:35;;;;;;;0.90;0.90;;;-7.70;99.90;;;;;;5033378;28;20202;-67
2021/12/03 01:28:01;;;;;;;0.90;0.90;;;-7.70;99.90;;;;;;5014496;28;20313;-67
2021/12/03 01:30:28;;;;;;;0.90;0.90;;;-7.80;99.90;;;;;;5031942;28;20232;-67
2021/12/03 01:32:55;;;;;;;0.90;0.90;;;-7.80;99.90;;;;;;5032250;28;20693;-67
2021/12/03 01:35:21;;;;;;;1.00;1.00;;;-7.80;99.90;;;;;;5016190;28;20205;-67
2021/12/03 01:37:48;;;;;;;0.90;0.90;;;-7.80;99.90;;;;;;5032120;28;20289;-68
2021/12/03 01:40:18;;;;;;;1.00;1.00;;;-7.80;99.90;;;;;;5031823;28;20202;-67
2021/12/03 01:42:45;;;;;;;1.00;1.00;;;-7.80;99.90;;;;;;5015372;28;20744;-67
2021/12/03 01:45:15;;;;;;;0.90;0.90;;;-7.80;99.90;;;;;;5031854;28;20293;-67
2021/12/03 01:47:43;;;;;;;1.00;1.00;;;-7.90;99.90;;;;;;5032165;28;20206;-67
2021/12/03 01:50:10;;;;;;;0.83;0.83;;;-7.90;99.90;;;;;;5013777;28;20210;-67
2021/12/03 01:52:35;;;;;;;0.90;0.90;;;-7.90;99.90;;;;;;5031240;28;20202;-67
2021/12/03 01:55:02;;;;;;;1.00;1.00;;;-7.90;99.90;;;;;;5013805;28;20635;-67
2021/12/03 01:57:28;;;;;;;0.80;0.80;;;-7.90;99.90;;;;;;5031516;28;20202;-67
2021/12/03 01:59:54;;;;;;;1.10;1.10;;;-7.90;99.90;;;;;;5032950;28;20581;-69
2021/12/03 02:02:19;;;;;;;1.00;1.00;;;-7.90;99.90;;;;;;5031629;28;20233;-69
2021/12/03 02:04:45;;;;;;;0.90;0.90;;;-7.90;99.90;;;;;;5031573;28;20750;-68
2021/12/03 02:07:11;;;;;;;0.90;0.90;;;-8.00;99.90;;;;;;5032836;28;20206;-68
2021/12/03 02:09:36;;;;;;;0.90;0.90;;;-7.90;99.90;;;;;;5032506;28;20210;-68
2021/12/03 02:12:02;;;;;;;0.80;0.80;;;-8.00;99.90;;;;;;5010145;28;20222;-69
2021/12/03 02:14:28;;;;;;;0.90;0.90;;;-8.00;99.90;;;;;;5011304;28;20239;-69
2021/12/03 02:16:54;;;;;;;0.90;0.90;;;-8.00;99.90;;;;;;5013111;28;20199;-69
2021/12/03 02:19:20;;;;;;;0.90;0.90;;;-8.00;99.90;;;;;;5011553;28;20198;-69
2021/12/03 02:21:46;;;;;;;0.90;0.90;;;-8.00;99.90;;;;;;5012980;28;20210;-68
2021/12/03 02:24:12;;;;;;;0.90;0.90;;;-8.00;99.90;;;;;;5011610;28;20206;-68
2021/12/03 02:26:39;;;;;;;1.00;1.00;;;-8.00;99.90;;;;;;5011541;28;20253;-69
2021/12/03 02:29:05;;;;;;;0.90;0.90;;;-8.00;99.90;;;;;;5010315;28;20696;-68
2021/12/03 02:31:30;;;;;;;0.80;0.80;;;-8.00;99.90;;;;;;5011299;28;20289;-68
2021/12/03 02:33:56;;;;;;;1.00;1.00;;;-8.10;99.90;;;;;;5011492;28;20226;-68
2021/12/03 02:36:22;;;;;;;0.87;0.87;;;-8.10;99.90;;;;;;5011276;28;20673;-68
2021/12/03 02:38:48;;;;;;;0.90;0.90;;;-8.10;99.90;;;;;;5010345;28;20218;-68
2021/12/03 02:41:15;;;;;;;0.90;0.90;;;-8.10;99.90;;;;;;5011430;28;20282;-69
2021/12/03 02:43:41;;;;;;;1.60;1.50;;;-8.10;99.90;;;;;;4994311;28;20250;-69
2021/12/03 02:46:07;;;;;;;0.93;0.93;;;-8.10;99.90;;;;;;5011801;28;20199;-69
2021/12/03 02:48:35;;;;;;;0.90;0.90;;;-8.10;99.90;;;;;;5012154;28;20256;-68
2021/12/03 02:51:02;;;;;;;0.90;0.90;;;-8.20;99.90;;;;;;5011060;28;20260;-68
2021/12/03 02:53:28;;;;;;;0.90;0.90;;;-8.20;99.90;;;;;;5012434;28;20700;-69
2021/12/03 02:55:54;;;;;;;0.90;0.90;;;-8.20;99.90;;;;;;5009894;28;20199;-69
2021/12/03 02:58:20;;;;;;;1.00;1.00;;;-8.20;99.90;;;;;;5011146;28;20578;-68
2021/12/03 03:00:48;;;;;;;0.90;0.90;;;-8.20;99.90;;;;;;5008461;28;20759;-68
2021/12/03 03:03:13;;;;;;;0.90;0.90;;;-8.20;99.90;;;;;;5011085;28;20580;-69
2021/12/03 03:05:39;;;;;;;0.90;0.90;;;-8.20;99.90;;;;;;5013882;28;20215;-68
2021/12/03 03:08:05;;;;;;;0.90;0.90;;;-8.20;99.90;;;;;;5015003;28;20241;-69
2021/12/03 03:10:36;;;;;;;1.00;1.00;;;-8.20;99.90;;;;;;5019776;28;20217;-68
2021/12/03 03:13:02;;;;;;;0.90;0.90;;;-8.30;99.90;;;;;;5035777;28;20637;-68
2021/12/03 03:15:28;;;;;;;0.80;0.80;;;-8.30;99.90;;;;;;5034441;28;20692;-68
2021/12/03 03:17:55;;;;;;;0.90;0.90;;;-8.30;99.90;;;;;;5034670;28;20256;-67
2021/12/03 03:20:22;;;;;;;0.90;0.90;;;-8.30;99.90;;;;;;5016305;28;20252;-68
2021/12/03 03:22:49;;;;;;;0.90;0.90;;;-8.30;99.90;;;;;;5016736;28;20206;-68
2021/12/03 03:25:17;;;;;;;1.00;1.00;;;-8.40;99.90;;;;;;5016380;28;20573;-68
2021/12/03 03:27:43;;;;;;;0.90;0.90;;;-8.40;99.90;;;;;;5035552;28;20214;-68
2021/12/03 03:30:13;;;;;;;1.00;1.00;;;-8.40;99.90;;;;;;5035540;28;20210;-68
2021/12/03 03:32:39;;;;;;;0.93;0.93;;;-8.50;99.90;;;;;;5034139;28;20206;-67
2021/12/03 03:35:06;;;;;;;0.90;0.90;;;-8.50;99.90;;;;;;5035395;28;20670;-68
2021/12/03 03:37:32;;;;;;;0.90;0.90;;;-8.50;99.90;;;;;;5034135;28;20202;-68
2021/12/03 03:39:57;;;;;;;0.90;0.90;;;-8.60;99.90;;;;;;5034044;28;20197;-68
2021/12/03 03:42:23;;;;;;;0.90;0.90;;;-8.60;99.90;;;;;;5034008;28;20213;-67
2021/12/03 03:44:49;;;;;;;1.00;1.00;;;-8.60;99.90;;;;;;5035427;28;20209;-68
2021/12/03 03:47:15;;;;;;;0.90;0.90;;;-8.60;99.90;;;;;;5034158;28;20240;-68
2021/12/03 03:49:41;;;;;;;0.90;0.90;;;-8.70;99.90;;;;;;5033865;28;20209;-68
2021/12/03 03:52:08;;;;;;;1.00;1.00;;;-8.70;99.90;;;;;;5034033;28;20570;-68
2021/12/03 03:54:34;;;;;;;0.90;0.90;;;-8.80;99.90;;;;;;5033803;28;20268;-68
2021/12/03 03:57:00;;;;;;;0.90;0.90;;;-8.80;99.90;;;;;;5033998;28;20201;-68
2021/12/03 03:59:26;;;;;;;0.93;0.93;;;-8.90;99.90;;;;;;5034928;28;20233;-68
2021/12/03 04:01:52;;;;;;;0.90;0.90;;;-8.90;99.90;;;;;;5015343;28;20236;-68
2021/12/03 04:04:20;;;;;;;1.00;1.00;;;-9.00;99.90;;;;;;5033438;28;20647;-68
2021/12/03 04:06:47;;;;;;;1.00;1.00;;;-9.00;99.90;;;;;;5015682;28;20198;-68
2021/12/03 04:09:13;;;;;;;0.97;0.97;;;-9.00;99.90;;;;;;5034916;28;20248;-68
2021/12/03 04:11:39;;;;;;;1.00;1.00;;;-9.00;99.90;;;;;;5015239;28;20694;-68
2021/12/03 04:14:05;;;;;;;0.90;0.90;;;-9.10;99.90;;;;;;5034910;28;20202;-69
2021/12/03 04:16:31;;;;;;;0.90;0.90;;;-9.00;99.90;;;;;;5032292;28;20205;-68
2021/12/03 04:18:58;;;;;;;0.90;0.90;;;-9.00;99.90;;;;;;5033968;28;20206;-69
2021/12/03 04:21:24;;;;;;;0.87;0.87;;;-9.00;99.90;;;;;;5034596;28;20210;-69
2021/12/03 04:23:51;;;;;;;0.90;0.90;;;-9.00;99.90;;;;;;5033537;28;20253;-68
2021/12/03 04:26:17;;;;;;;0.90;0.90;;;-9.00;99.90;;;;;;5033377;28;20229;-68
2021/12/03 04:28:43;;;;;;;0.90;0.90;;;-8.90;99.90;;;;;;5032991;28;20234;-68
2021/12/03 04:31:08;;;;;;;1.00;1.00;;;-8.90;99.90;;;;;;5034485;28;20732;-68
2021/12/03 04:33:34;;;;;;;0.97;0.97;;;-8.90;99.90;;;;;;5034297;28;20265;-68
2021/12/03 04:36:00;;;;;;;0.93;0.93;;;-8.90;99.90;;;;;;5015553;28;20203;-68
2021/12/03 04:38:26;;;;;;;0.90;0.90;;;-8.90;99.90;;;;;;5032988;28;20202;-68
2021/12/03 04:40:51;;;;;;;1.00;1.00;;;-8.80;99.90;;;;;;5032955;28;20206;-68
2021/12/03 04:43:17;;;;;;;1.10;1.10;;;-8.90;99.90;;;;;;5033036;28;20209;-68
2021/12/03 04:45:43;;;;;;;1.10;1.10;;;-8.90;99.90;;;;;;5034455;28;20221;-68
2021/12/03 04:48:09;;;;;;;1.00;1.00;;;-8.80;99.90;;;;;;5033145;28;20198;-68
2021/12/03 04:50:38;;;;;;;1.00;1.00;;;-8.90;99.90;;;;;;5032809;28;20221;-67
2021/12/03 04:53:05;;;;;;;0.90;0.90;;;-8.80;99.90;;;;;;5032915;28;20202;-68
2021/12/03 04:55:31;;;;;;;0.90;0.90;;;-8.80;99.90;;;;;;5032724;28;20213;-68
2021/12/03 04:57:58;;;;;;;0.90;0.90;;;-8.80;99.90;;;;;;5034170;28;20202;-68
2021/12/03 05:00:35;;;;;;;1.00;1.00;;;-8.80;99.90;;;;;;5032453;28;20268;-68
2021/12/03 05:03:01;;;;;;;0.90;0.90;;;-8.80;99.90;;;;;;5032620;28;20693;-68
2021/12/03 05:05:31;;;;;;;1.00;1.00;;;-8.80;99.90;;;;;;5032453;28;20202;-68
2021/12/03 05:07:58;;;;;;;1.00;1.00;;;-8.90;99.90;;;;;;5014540;28;20213;-68
2021/12/03 05:10:25;;;;;;;0.90;0.90;;;-8.90;99.90;;;;;;5033460;28;20225;-68
2021/12/03 05:12:51;;;;;;;0.80;0.80;;;-8.80;99.90;;;;;;5032579;28;20202;-68
2021/12/03 05:15:18;;;;;;;1.00;1.00;;;-8.90;99.90;;;;;;5033759;28;20210;-68
2021/12/03 05:17:44;;;;;;;0.90;0.90;;;-9.00;99.90;;;;;;5014619;28;20233;-68
2021/12/03 05:20:10;;;;;;;0.90;0.90;;;-9.00;99.90;;;;;;5014449;28;20214;-68
2021/12/03 05:22:35;;;;;;;0.90;0.90;;;-9.10;99.90;;;;;;5033432;28;20209;-68
2021/12/03 05:25:01;;;;;;;0.90;0.90;;;-9.00;99.90;;;;;;5033776;28;20202;-68
2021/12/03 05:27:27;;;;;;;0.90;0.90;;;-9.00;99.90;;;;;;5032758;28;20206;-68
2021/12/03 05:29:52;;;;;;;0.87;0.87;;;-9.00;99.90;;;;;;5032272;28;20214;-68
2021/12/03 05:32:19;;;;;;;0.90;0.90;;;-9.00;99.90;;;;;;5014326;28;20190;-68
2021/12/03 05:34:45;;;;;;;0.87;0.87;;;-8.90;99.90;;;;;;5014660;28;20661;-68
2021/12/03 05:37:10;;;;;;;0.90;0.90;;;-8.80;99.90;;;;;;5014282;28;20190;-70
2021/12/03 05:39:37;;;;;;;0.90;0.90;;;-8.80;99.90;;;;;;5032989;28;20209;-68
2021/12/03 05:42:04;;;;;;;1.30;1.20;;;-8.90;99.90;;;;;;5032874;28;20614;-68
2021/12/03 12:42:34;;;;;;;0.80;0.80;;;-7.80;99.90;;;;;;5017347;28;20264;-69
2021/12/03 12:44:39;;;;;;;0.90;0.90;;;-7.80;99.90;;;;;;5023713;28;20640;-69
2021/12/03 14:00:49;;;;;;;0.97;0.97;;;-7.80;99.90;;;;;;5031382;28;20279;-70
2021/12/03 14:39:45;;;;;;;0.90;0.90;;;-7.20;99.90;;;;;;5030808;28;20221;-70
2021/12/03 14:42:32;;;;;;;1.00;1.00;;;-7.20;99.90;;;;;;5036195;28;20708;-69
2021/12/03 14:45:09;;;;;;;1.00;1.00;;;-7.20;99.90;;;;;;5031524;28;20213;-69
2021/12/03 14:48:07;;;;;;;0.90;0.90;;;-7.20;99.90;;;;;;5048419;28;20260;-70
2021/12/03 14:55:54;;;;;;;0.90;0.90;;;-7.20;99.90;;;;;;5030479;28;20755;-69
2021/12/03 15:01:16;;;;;;;0.90;0.90;;;-7.20;99.90;;;;;;5049531;28;20220;-70
2021/12/03 15:04:06;;;;;;;0.90;0.90;;;-7.20;99.90;;;;;;5035428;28;20664;-70
2021/12/03 15:06:36;;;;;;;0.90;0.90;;;-7.10;99.90;;;;;;5018263;28;20212;-70
2021/12/03 15:09:18;;;;;;;1.27;1.23;;;-7.10;99.90;;;;;;5017807;28;21083;-67
2021/12/03 15:30:08;;;;;;;0.90;0.90;;;-7.00;99.90;;;;;;5046208;28;20209;-70
2021/12/03 16:03:31;;;;;;;0.93;0.93;;;-7.10;99.90;;;;;;5053250;28;20209;-69
2021/12/03 16:20:19;;;;;;;0.83;0.83;;;-6.90;99.90;;;;;;5037451;28;20605;-70
2021/12/03 16:23:16;;;;;;;4.63;3.67;;;-7.00;99.90;;;;;;5053478;28;20202;-70
2021/12/03 16:48:13;;;;;;;1.17;1.13;;;-7.10;99.90;;;;;;5032859;28;20221;-71
2021/12/03 16:50:52;;;;;;;2.47;2.30;;;-7.10;99.90;;;;;;5029850;28;20265;-71
2021/12/03 16:53:27;;;;;;;1.00;1.00;;;-7.20;99.90;;;;;;5016671;28;20209;-71
2021/12/03 16:56:12;;;;;;;1.10;1.10;;;-7.10;99.90;;;;;;5017660;28;20280;-71
2021/12/03 16:58:41;;;;;;;1.77;1.67;;;-7.10;99.90;;;;;;5032638;28;20304;-73
2021/12/03 17:04:25;;;;;;;1.13;1.13;;;-7.10;99.90;;;;;;5033808;28;20691;-71
2021/12/03 17:30:48;;;;;;;0.83;0.83;;;-7.00;99.90;;;;;;5031734;28;20715;-71
2021/12/03 17:49:46;;;;;;;1.10;1.10;;;-6.70;99.90;;;;;;5023440;28;20221;-71
2021/12/03 17:59:53;;;;;;;1.50;1.40;;;-6.70;99.90;;;;;;5031611;28;20585;-71
2021/12/03 18:02:30;;;;;;;0.90;0.90;;;-6.70;99.90;;;;;;5030526;28;20668;-71
2021/12/03 18:05:13;;;;;;;1.00;1.00;;;-6.70;99.90;;;;;;5013781;28;20634;-71
2021/12/03 18:51:36;;;;;;;1.60;1.53;;;-6.60;99.90;;;;;;5034782;28;20275;-70
2021/12/03 18:56:44;;;;;;;1.87;1.70;;;-6.60;99.90;;;;;;5049456;28;20288;-70
2021/12/03 18:59:10;;;;;;;1.40;1.30;;;-6.60;99.90;;;;;;5050860;28;20835;-71
2021/12/03 19:01:37;;;;;;;2.50;2.30;;;-6.60;99.90;;;;;;5032424;28;20209;-71
2021/12/03 19:09:26;;;;;;;1.57;1.47;;;-6.60;99.90;;;;;;5049443;28;20240;-72
2021/12/03 19:14:19;;;;;;;0.90;0.90;;;-6.50;99.90;;;;;;5050790;28;20208;-73
2021/12/03 19:16:45;;;;;;;1.60;1.27;;;-6.40;99.90;;;;;;5032696;28;20205;-72
2021/12/03 19:19:15;;;;;;;1.00;1.00;;;-6.40;99.90;;;;;;5050730;28;20201;-71
2021/12/03 19:21:43;;;;;;;0.90;0.90;;;-6.40;99.90;;;;;;5032156;28;20218;-72
2021/12/03 19:24:10;;;;;;;0.80;0.80;;;-6.50;99.90;;;;;;5050807;28;20637;-70
2021/12/03 19:26:42;;;;;;;0.90;0.90;;;-6.50;99.90;;;;;;5051697;28;20213;-70
2021/12/03 19:29:11;;;;;;;1.00;1.00;;;-6.50;99.90;;;;;;5049691;28;20206;-71
2021/12/03 19:31:37;;;;;;;3.23;2.10;;;-6.50;99.90;;;;;;5050246;28;20641;-70
2021/12/03 19:34:03;;;;;;;1.00;1.00;;;-6.50;99.90;;;;;;5034118;28;20210;-70
2021/12/03 19:36:30;;;;;;;0.90;0.90;;;-6.50;99.90;;;;;;5050309;28;20206;-70
2021/12/03 19:38:57;;;;;;;0.90;0.90;;;-6.60;99.90;;;;;;5048871;28;20218;-69
2021/12/03 19:41:38;;;;;;;3.67;3.30;;;-6.60;99.90;;;;;;5033998;28;20685;-71
2021/12/03 19:44:15;;;;;;;0.90;0.90;;;-6.60;99.90;;;;;;5034282;28;20233;-70
2021/12/03 19:46:45;;;;;;;0.87;0.87;;;-6.60;99.90;;;;;;5051513;28;20711;-70
2021/12/03 19:51:50;;;;;;;1.13;1.13;;;-6.60;99.90;;;;;;5055248;28;20217;-73
2021/12/03 19:54:18;;;;;;;1.30;1.30;;;-6.60;99.90;;;;;;5053754;28;20250;-71
2021/12/03 19:56:44;;;;;;;0.90;0.90;;;-6.60;99.90;;;;;;5052619;28;20218;-70
2021/12/03 19:59:11;;;;;;;1.17;1.17;;;-6.60;99.90;;;;;;5053928;28;20291;-70
2021/12/03 20:01:37;;;;;;;0.87;0.87;;;-6.60;99.90;;;;;;5053614;28;20221;-70
2021/12/03 20:04:04;;;;;;;0.80;0.80;;;-6.60;99.90;;;;;;5035821;28;20582;-70
2021/12/03 20:06:30;;;;;;;0.90;0.90;;;-6.60;99.90;;;;;;5052558;28;20740;-69
2021/12/03 20:08:59;;;;;;;5.03;1.77;;;-6.60;99.90;;;;;;5052358;28;20303;-70
2021/12/03 20:11:27;;;;;;;1.60;1.50;;;-6.50;99.90;;;;;;5053382;28;20623;-70
2021/12/03 20:13:59;;;;;;;1.10;1.10;;;-6.50;99.90;;;;;;5053433;28;20216;-69
2021/12/03 20:19:05;;;;;;;0.83;0.83;;;-6.40;99.90;;;;;;5054165;28;20224;-69
2021/12/03 20:21:32;;;;;;;0.80;0.80;;;-6.40;99.90;;;;;;5053400;28;20252;-69
2021/12/03 20:31:32;;;;;;;0.90;0.90;;;-6.40;99.90;;;;;;5054441;28;20272;-70
2021/12/03 20:34:06;;;;;;;1.00;1.00;;;-6.40;99.90;;;;;;5034204;28;20657;-70
2021/12/03 20:39:22;;;;;;;0.80;0.80;;;-6.40;99.90;;;;;;5054380;28;20304;-71
2021/12/03 21:11:46;;;;;;;0.90;0.90;;;-6.70;99.90;;;;;;5049595;28;20612;-70
2021/12/03 21:13:56;;;;;;;0.80;0.80;;;-6.70;99.90;;;;;;5039269;28;20213;-71
2021/12/03 21:23:54;;;;;;;0.90;0.90;;;-6.80;99.90;;;;;;5049283;28;20210;-69
2021/12/03 21:26:22;;;;;;;0.90;0.90;;;-6.80;99.90;;;;;;5050405;28;20216;-70
2021/12/03 21:29:06;;;;;;;0.90;0.90;;;-6.80;99.90;;;;;;5033252;28;20241;-71
2021/12/03 21:42:06;;;;;;;0.80;0.80;;;-6.90;99.90;;;;;;5048618;28;20341;-71
2021/12/03 21:44:32;;;;;;;1.00;1.00;;;-6.90;99.90;;;;;;5031703;28;20319;-70
2021/12/03 21:46:58;;;;;;;0.80;0.80;;;-7.00;99.90;;;;;;5048947;28;20209;-71
2021/12/03 21:49:23;;;;;;;0.90;0.90;;;-7.00;99.90;;;;;;5029963;28;20657;-72
2021/12/03 21:51:50;;;;;;;1.00;1.00;;;-7.00;99.90;;;;;;5031984;28;20304;-70
2021/12/03 21:54:16;;;;;;;0.80;0.80;;;-7.00;99.90;;;;;;5032958;28;20210;-71
2021/12/03 21:56:44;;;;;;;0.90;0.90;;;-7.00;99.90;;;;;;5046960;28;20223;-71
2021/12/03 21:59:12;;;;;;;0.90;0.90;;;-7.10;99.90;;;;;;5066408;23;20252;-83
2021/12/03 22:01:39;;;;;;;0.90;0.90;;;-7.10;99.90;;;;;;5056791;28;20224;-83
2021/12/03 22:04:04;;;;;;;0.90;0.90;;;-7.10;99.90;;;;;;5054841;28;20569;-83
2021/12/03 22:06:32;;;;;;;0.90;0.90;;;-7.10;99.90;;;;;;5049031;28;20216;-83
2021/12/03 22:08:58;;;;;;;1.03;1.03;;;-7.20;99.90;;;;;;5062558;28;20226;-82
2021/12/03 22:11:26;;;;;;;0.80;0.80;;;-7.20;99.90;;;;;;5057465;28;20220;-83
2021/12/03 22:13:52;;;;;;;0.90;0.90;;;-7.20;99.90;;;;;;5054835;28;20236;-82
2021/12/03 22:16:19;;;;;;;0.90;0.90;;;-7.20;99.90;;;;;;5055748;28;20209;-83
2021/12/03 22:18:47;;;;;;;1.00;1.00;;;-7.10;99.90;;;;;;5042700;28;20735;-83
2021/12/03 22:21:13;;;;;;;0.80;0.80;;;-7.10;99.90;;;;;;5046893;28;20687;-84
2021/12/03 22:23:42;;;;;;;1.20;1.20;;;-7.10;99.90;;;;;;5055774;28;20224;-82
2021/12/03 22:26:19;;;;;;;0.80;0.80;;;-7.10;99.90;;;;;;5055569;28;20241;-83
2021/12/03 22:28:46;;;;;;;0.90;0.90;;;-7.00;99.90;;;;;;5052041;28;20690;-85
2021/12/03 22:31:12;;;;;;;0.80;0.80;;;-7.00;99.90;;;;;;5053176;28;20259;-84
2021/12/03 22:33:49;;;;;;;0.90;0.90;;;-6.90;99.90;;;;;;5054150;28;20686;-84
2021/12/03 22:36:21;;;;;;;0.93;0.93;;;-7.00;99.90;;;;;;5054576;28;20584;-85
2021/12/03 22:38:50;;;;;;;0.70;0.70;;;-6.90;99.90;;;;;;5053306;28;20249;-85
2021/12/03 22:41:16;;;;;;;1.00;1.00;;;-6.90;99.90;;;;;;5057641;28;20562;-85
2021/12/03 22:43:52;;;;;;;1.30;1.27;;;-6.90;99.90;;;;;;5068297;28;20216;-84
2021/12/03 22:46:31;;;;;;;0.90;0.90;;;-6.90;99.90;;;;;;5059482;28;20223;-85
2021/12/03 22:54:53;;;;;;;1.00;1.00;;;-6.90;99.90;;;;;;4996856;28;20207;-85
2021/12/03 22:57:22;;;;;;;1.00;1.00;;;-6.80;99.90;;;;;;4988656;28;20214;-85
2021/12/03 22:59:50;;;;;;;1.40;1.30;;;-6.80;99.90;;;;;;4997713;28;20723;-85
2021/12/03 23:02:16;;;;;;;0.90;0.90;;;-6.90;99.90;;;;;;4984072;28;20354;-86
2021/12/03 23:04:44;;;;;;;0.90;0.90;;;-6.90;99.90;;;;;;4969698;28;20343;-84
2021/12/03 23:07:11;;;;;;;0.77;0.77;;;-6.90;99.90;;;;;;5010099;28;20207;-84
2021/12/03 23:09:38;;;;;;;0.90;0.90;;;-6.90;99.90;;;;;;4993830;28;20311;-83
2021/12/03 23:12:06;;;;;;;0.90;0.90;;;-6.90;99.90;;;;;;5012681;28;20268;-83
2021/12/03 23:14:32;;;;;;;0.80;0.80;;;-6.90;99.90;;;;;;5013655;28;20260;-83
2021/12/03 23:16:58;;;;;;;0.90;0.90;;;-6.90;99.90;;;;;;5012188;28;20217;-83
2021/12/03 23:19:26;;;;;;;0.90;0.90;;;-6.90;99.90;;;;;;4994563;28;20210;-84
2021/12/03 23:21:52;;;;;;;0.90;0.90;;;-6.90;99.90;;;;;;4995174;28;20215;-83
2021/12/03 23:25:03;;;;;;;1.00;1.00;;;-6.90;99.90;;;;;;4996625;28;20696;-83
2021/12/03 23:27:29;;;;;;;0.93;0.93;;;-6.90;99.90;;;;;;4998104;28;20245;-83
2021/12/03 23:29:55;;;;;;;0.90;0.90;;;-6.90;99.90;;;;;;4998244;28;20287;-84
2021/12/03 23:32:23;;;;;;;1.00;1.00;;;-6.90;99.90;;;;;;5054137;28;20310;-84
2021/12/03 23:34:54;;;;;;;0.93;0.93;;;-6.90;99.90;;;;;;5059184;28;20219;-87
2021/12/03 23:37:22;;;;;;;0.90;0.90;;;-6.80;99.90;;;;;;5056948;28;20209;-85
2021/12/03 23:39:57;;;;;;;0.90;0.90;;;-6.70;99.90;;;;;;5058766;28;20216;-84
2021/12/03 23:42:23;;;;;;;0.90;0.90;;;-6.60;99.90;;;;;;5059178;28;20220;-84
2021/12/03 23:44:49;;;;;;;0.90;0.90;;;-6.60;99.90;;;;;;5041530;28;20224;-87
2021/12/03 23:47:18;;;;;;;1.00;1.00;;;-6.50;99.90;;;;;;5061372;28;20213;-84
2021/12/03 23:49:47;;;;;;;0.90;0.90;;;-6.50;99.90;;;;;;5056347;28;20617;-84
2021/12/03 23:52:14;;;;;;;1.03;1.03;;;-6.50;99.90;;;;;;5056991;28;20216;-84
2021/12/03 23:54:40;;;;;;;1.00;1.00;;;-6.40;99.90;;;;;;5055956;28;20585;-84
2021/12/03 23:57:08;;;;;;;1.00;1.00;;;-6.40;99.90;;;;;;5072933;28;20588;-84
